createdAt,value
2022-09-15T00:02:08.495Z,14.79
2022-09-15T00:05:13.033Z,14.81
2022-09-15T00:08:15.903Z,14.80
2022-09-15T00:11:21.223Z,14.81
2022-09-15T00:14:25.497Z,14.83
2022-09-15T00:17:29.297Z,14.78
2022-09-15T00:20:31.868Z,14.74
2022-09-15T00:23:34.840Z,14.74
2022-09-15T00:26:37.655Z,14.69
2022-09-15T00:29:41.682Z,14.61
2022-09-15T00:32:44.214Z,14.59
2022-09-15T00:35:49.445Z,14.61
2022-09-15T00:38:52.238Z,14.52
2022-09-15T00:41:54.984Z,14.52
2022-09-15T00:45:01.874Z,14.53
2022-09-15T00:48:05.537Z,14.50
2022-09-15T00:51:09.845Z,14.48
2022-09-15T00:54:17.240Z,14.43
2022-09-15T00:57:24.169Z,14.38
2022-09-15T01:00:29.370Z,14.35
2022-09-15T01:03:34.280Z,14.30
2022-09-15T01:06:40.081Z,14.29
2022-09-15T01:09:49.451Z,14.22
2022-09-15T01:12:53.405Z,14.15
2022-09-15T01:16:14.005Z,14.18
2022-09-15T01:19:40.647Z,14.15
2022-09-15T01:22:55.269Z,14.12
2022-09-15T01:26:37.834Z,14.09
2022-09-15T01:29:53.262Z,14.05
2022-09-15T01:33:09.862Z,14.05
2022-09-15T01:36:18.316Z,13.98
2022-09-15T01:39:26.257Z,13.92
2022-09-15T01:42:30.560Z,13.93
2022-09-15T01:45:35.780Z,13.92
2022-09-15T01:48:39.463Z,13.92
2022-09-15T01:51:44.890Z,13.86
2022-09-15T01:54:51.393Z,13.84
2022-09-15T01:57:54.125Z,13.74
2022-09-15T02:01:01.717Z,13.66
2022-09-15T02:04:09.842Z,13.70
2022-09-15T02:07:21.535Z,13.71
2022-09-15T02:10:32.799Z,13.64
2022-09-15T02:13:45.162Z,13.69
2022-09-15T02:16:53.719Z,13.67
2022-09-15T02:20:04.189Z,13.65
2022-09-15T02:23:10.757Z,13.61
2022-09-15T02:26:18.288Z,13.54
2022-09-15T02:29:22.943Z,13.53
2022-09-15T02:32:29.653Z,13.52
2022-09-15T02:35:35.935Z,13.50
2022-09-15T02:38:44.514Z,13.53
2022-09-15T02:41:47.304Z,13.52
2022-09-15T02:44:50.013Z,13.45
2022-09-15T02:47:53.943Z,13.40
2022-09-15T02:50:56.610Z,13.46
2022-09-15T02:53:59.215Z,13.39
2022-09-15T02:57:01.921Z,13.32
2022-09-15T03:00:16.256Z,13.33
2022-09-15T03:03:21.954Z,13.36
2022-09-15T03:06:25.622Z,13.33
2022-09-15T03:09:28.225Z,13.33
2022-09-15T03:12:30.810Z,13.24
2022-09-15T03:15:33.373Z,13.22
2022-09-15T03:18:37.677Z,13.23
2022-09-15T03:21:40.363Z,13.25
2022-09-15T03:24:43.190Z,13.26
2022-09-15T03:27:46.137Z,13.24
2022-09-15T03:30:48.821Z,13.21
2022-09-15T03:33:56.295Z,13.13
2022-09-15T03:36:58.867Z,13.09
2022-09-15T03:40:01.622Z,13.08
2022-09-15T03:43:04.263Z,13.11
2022-09-15T03:46:09.062Z,13.02
2022-09-15T03:49:13.442Z,13.07
2022-09-15T03:52:16.122Z,13.00
2022-09-15T03:55:18.807Z,12.95
2022-09-15T03:58:21.397Z,12.91
2022-09-15T04:01:24.758Z,12.91
2022-09-15T04:04:28.823Z,12.90
2022-09-15T04:07:31.506Z,12.89
2022-09-15T04:10:34.991Z,12.91
2022-09-15T04:13:38.779Z,12.89
2022-09-15T04:16:41.415Z,12.74
2022-09-15T04:19:45.712Z,12.74
2022-09-15T04:22:48.422Z,12.79
2022-09-15T04:25:57.959Z,12.81
2022-09-15T04:29:04.467Z,12.81
2022-09-15T04:32:07.869Z,12.76
2022-09-15T04:35:12.244Z,12.71
2022-09-15T04:38:14.842Z,12.72
2022-09-15T04:41:18.643Z,12.73
2022-09-15T04:44:21.615Z,12.71
2022-09-15T04:47:24.171Z,12.74
2022-09-15T04:50:28.294Z,12.81
2022-09-15T04:53:31.126Z,12.81
2022-09-15T04:56:34.013Z,12.83
2022-09-15T04:59:36.849Z,12.88
2022-09-15T05:02:39.549Z,12.93
2022-09-15T05:05:43.469Z,12.91
2022-09-15T05:08:48.380Z,12.90
2022-09-15T05:11:50.930Z,12.92
2022-09-15T05:14:53.631Z,13.04
2022-09-15T05:17:56.198Z,13.05
2022-09-15T05:21:01.276Z,13.13
2022-09-15T05:24:03.870Z,13.31
2022-09-15T05:27:06.918Z,13.24
2022-09-15T05:30:35.972Z,13.39
2022-09-15T05:33:33.541Z,13.38
2022-09-15T05:36:37.599Z,13.44
2022-09-15T05:39:41.031Z,13.49
2022-09-15T05:42:43.737Z,13.52
2022-09-15T05:45:54.971Z,13.55
2022-09-15T05:48:59.897Z,13.64
2022-09-15T05:52:04.302Z,13.63
2022-09-15T05:55:07.336Z,13.71
2022-09-15T05:58:10.016Z,13.68
2022-09-15T06:01:15.594Z,13.68
2022-09-15T06:04:18.206Z,13.75
2022-09-15T06:07:22.264Z,13.89
2022-09-15T06:10:25.220Z,14.16
2022-09-15T06:13:27.906Z,14.93
2022-09-15T06:16:33.865Z,15.10
2022-09-15T06:19:36.687Z,14.98
2022-09-15T06:22:40.915Z,14.92
2022-09-15T06:25:43.649Z,14.95
2022-09-15T06:28:50.147Z,14.77
2022-09-15T06:31:52.869Z,14.89
2022-09-15T06:34:55.464Z,14.93
2022-09-15T06:37:59.515Z,14.93
2022-09-15T06:41:02.081Z,14.94
2022-09-15T06:44:04.783Z,15.06
2022-09-15T06:47:07.565Z,15.31
2022-09-15T06:50:10.692Z,15.37
2022-09-15T06:53:15.156Z,15.25
2022-09-15T06:56:19.999Z,15.20
2022-09-15T06:59:24.033Z,15.09
2022-09-15T07:02:26.757Z,14.97
2022-09-15T07:05:30.666Z,15.24
2022-09-15T07:08:34.841Z,15.32
2022-09-15T07:11:37.715Z,15.26
2022-09-15T07:14:40.259Z,15.46
2022-09-15T07:17:42.958Z,15.49
2022-09-15T07:20:45.575Z,15.58
2022-09-15T07:23:50.094Z,15.68
2022-09-15T07:26:52.990Z,15.68
2022-09-15T07:29:55.646Z,15.71
2022-09-15T07:32:58.202Z,15.97
2022-09-15T07:36:01.980Z,15.96
2022-09-15T07:39:07.017Z,16.10
2022-09-15T07:42:09.736Z,16.13
2022-09-15T07:45:12.832Z,16.09
2022-09-15T07:48:15.526Z,16.30
2022-09-15T07:51:18.632Z,16.37
2022-09-15T07:54:23.138Z,16.39
2022-09-15T07:57:26.807Z,16.40
2022-09-15T08:00:29.616Z,16.52
2022-09-15T08:03:32.392Z,16.69
2022-09-15T08:06:36.361Z,16.93
2022-09-15T08:09:41.515Z,16.97
2022-09-15T08:12:44.373Z,17.47
2022-09-15T08:15:47.142Z,17.76
2022-09-15T08:18:51.213Z,17.70
2022-09-15T08:21:53.849Z,17.55
2022-09-15T08:24:57.888Z,17.29
2022-09-15T08:28:00.550Z,17.23
2022-09-15T08:31:05.476Z,17.07
2022-09-15T08:34:08.283Z,17.09
2022-09-15T08:37:10.892Z,17.16
2022-09-15T08:40:18.543Z,17.08
2022-09-15T08:43:26.646Z,17.03
2022-09-15T08:46:36.104Z,17.12
2022-09-15T08:49:52.008Z,17.10
2022-09-15T08:53:01.526Z,16.88
2022-09-15T08:56:14.884Z,17.15
2022-09-15T08:59:18.784Z,17.13
2022-09-15T09:02:56.041Z,17.59
2022-09-15T09:06:01.966Z,17.99
2022-09-15T09:09:13.504Z,18.40
2022-09-15T09:12:37.085Z,18.38
2022-09-15T09:15:54.166Z,18.50
2022-09-15T09:19:32.252Z,18.83
2022-09-15T09:22:39.185Z,18.76
2022-09-15T09:25:42.814Z,19.03
2022-09-15T09:28:55.277Z,19.20
2022-09-15T09:32:00.044Z,19.61
2022-09-15T09:35:06.246Z,20.17
2022-09-15T09:38:10.406Z,20.32
2022-09-15T09:41:16.105Z,20.37
2022-09-15T09:44:20.503Z,20.03
2022-09-15T09:47:28.190Z,20.88
2022-09-15T09:50:36.525Z,20.77
2022-09-15T09:53:39.159Z,20.37
2022-09-15T09:56:41.902Z,20.24
2022-09-15T09:59:47.341Z,19.89
2022-09-15T10:02:50.328Z,20.08
2022-09-15T10:06:04.982Z,19.82
2022-09-15T10:09:14.447Z,19.56
2022-09-15T10:12:35.393Z,19.86
2022-09-15T10:18:41.945Z,20.07
2022-09-15T10:21:44.502Z,20.09
2022-09-15T10:24:47.376Z,19.80
2022-09-15T10:28:11.843Z,19.84
2022-09-15T10:31:29.741Z,19.36
2022-09-15T10:34:33.017Z,19.27
2022-09-15T10:37:41.584Z,19.26
2022-09-15T10:40:53.008Z,19.18
2022-09-15T10:44:26.843Z,18.96
2022-09-15T10:47:43.573Z,18.66
2022-09-15T10:50:55.832Z,18.84
2022-09-15T10:54:11.653Z,18.71
2022-09-15T11:00:41.602Z,19.88
2022-09-15T11:04:08.921Z,20.99
2022-09-15T11:07:17.669Z,21.00
2022-09-15T11:10:27.004Z,20.52
2022-09-15T11:13:39.776Z,20.27
2022-09-15T11:16:56.460Z,20.16
2022-09-15T11:20:13.338Z,19.88
2022-09-15T11:23:21.461Z,19.71
2022-09-15T11:26:31.782Z,19.85
2022-09-15T11:29:53.427Z,19.69
2022-09-15T11:33:02.300Z,19.50
2022-09-15T11:36:14.504Z,19.46
2022-09-15T11:39:24.035Z,19.21
2022-09-15T11:42:34.326Z,19.13
2022-09-15T11:45:45.310Z,19.00
2022-09-15T11:48:56.371Z,19.08
2022-09-15T11:52:07.417Z,19.37
2022-09-15T11:55:19.724Z,19.20
2022-09-15T11:58:29.500Z,19.52
2022-09-15T12:01:38.366Z,19.55
2022-09-15T12:04:48.983Z,20.25
2022-09-15T12:07:59.429Z,21.38
2022-09-15T12:11:07.348Z,21.85
2022-09-15T12:14:15.344Z,22.10
2022-09-15T12:17:27.562Z,22.14
2022-09-15T12:20:36.938Z,22.33
2022-09-15T12:23:44.049Z,22.17
2022-09-15T12:26:47.573Z,22.01
2022-09-15T12:29:51.180Z,22.43
2022-09-15T12:32:57.742Z,21.39
2022-09-15T12:36:45.790Z,20.83
2022-09-15T12:39:50.188Z,20.46
2022-09-15T12:42:53.122Z,20.14
2022-09-15T12:45:58.234Z,19.81
2022-09-15T12:49:03.348Z,19.40
2022-09-15T12:52:08.472Z,19.65
2022-09-15T12:55:20.195Z,20.69
2022-09-15T12:58:30.283Z,21.34
2022-09-15T13:01:46.722Z,21.85
2022-09-15T13:04:55.419Z,21.63
2022-09-15T13:07:58.776Z,21.47
2022-09-15T13:11:05.949Z,20.88
2022-09-15T13:14:27.930Z,20.41
2022-09-15T13:17:31.847Z,20.11
2022-09-15T13:20:39.387Z,20.19
2022-09-15T13:23:45.787Z,19.64
2022-09-15T13:26:57.602Z,19.44
2022-09-15T13:30:11.193Z,19.77
2022-09-15T13:40:52.949Z,19.96
2022-09-15T13:44:25.427Z,20.31
2022-09-15T13:47:38.990Z,20.26
2022-09-15T13:50:44.126Z,20.61
2022-09-15T13:53:50.763Z,19.92
2022-09-15T13:56:53.594Z,19.77
2022-09-15T13:59:56.247Z,19.83
2022-09-15T14:03:03.244Z,19.96
2022-09-15T14:06:13.928Z,19.89
2022-09-15T14:09:19.900Z,19.95
2022-09-15T14:12:22.704Z,19.74
2022-09-15T14:15:26.875Z,19.53
2022-09-15T14:18:43.418Z,19.88
2022-09-15T14:21:49.150Z,19.65
2022-09-15T14:24:52.163Z,20.00
2022-09-15T14:27:56.544Z,20.28
2022-09-15T14:30:59.690Z,20.18
2022-09-15T14:34:06.919Z,19.54
2022-09-15T14:37:19.813Z,19.20
2022-09-15T14:40:29.082Z,18.99
2022-09-15T14:43:35.475Z,19.04
2022-09-15T14:46:38.549Z,19.07
2022-09-15T14:49:42.484Z,19.01
2022-09-15T14:52:51.343Z,19.07
2022-09-15T14:55:58.204Z,18.97
2022-09-15T14:59:05.885Z,18.73
2022-09-15T15:02:22.495Z,18.71
2022-09-15T15:05:31.580Z,18.79
2022-09-15T15:08:38.723Z,18.71
2022-09-15T15:11:43.183Z,18.51
2022-09-15T15:14:46.012Z,18.47
2022-09-15T15:17:50.952Z,18.48
2022-09-15T15:20:54.881Z,18.29
2022-09-15T15:23:57.692Z,18.31
2022-09-15T15:27:27.373Z,18.06
2022-09-15T15:30:44.704Z,17.95
2022-09-15T15:33:49.549Z,17.80
2022-09-15T15:37:03.283Z,17.75
2022-09-15T15:40:14.873Z,17.60
2022-09-15T15:43:24.150Z,17.42
2022-09-15T15:46:45.972Z,17.28
2022-09-15T15:50:11.684Z,17.52
2022-09-15T15:53:12.576Z,17.48
2022-09-15T15:56:15.181Z,17.39
2022-09-15T15:59:18.442Z,17.38
2022-09-15T16:02:21.364Z,17.63
2022-09-15T16:05:27.847Z,17.64
2022-09-15T16:08:34.261Z,17.53
2022-09-15T16:11:36.859Z,17.20
2022-09-15T16:14:39.472Z,17.28
2022-09-15T16:17:46.011Z,17.17
2022-09-15T16:20:49.884Z,17.12
2022-09-15T16:23:54.269Z,17.10
2022-09-15T16:26:56.846Z,17.18
2022-09-15T16:29:59.401Z,17.04
2022-09-15T16:33:02.247Z,16.98
2022-09-15T16:36:06.982Z,16.90
2022-09-15T16:39:11.161Z,16.87
2022-09-15T16:42:13.749Z,16.92
2022-09-15T16:45:23.859Z,16.83
2022-09-15T16:48:27.222Z,16.71
2022-09-15T16:51:31.551Z,16.74
2022-09-15T16:54:35.885Z,16.78
2022-09-15T16:57:38.431Z,16.62
2022-09-15T17:00:41.300Z,16.51
2022-09-15T17:03:44.137Z,16.50
2022-09-15T17:06:47.026Z,16.19
2022-09-15T17:09:52.861Z,16.11
2022-09-15T17:12:55.549Z,16.07
2022-09-15T17:15:59.200Z,16.03
2022-09-15T17:19:01.925Z,16.09
2022-09-15T17:22:04.683Z,16.07
2022-09-15T17:25:20.274Z,16.06
2022-09-15T17:28:25.175Z,16.01
2022-09-15T17:31:28.084Z,16.01
2022-09-15T17:34:30.923Z,15.97
2022-09-15T17:37:33.732Z,15.86
2022-09-15T17:40:38.006Z,15.87
2022-09-15T17:43:40.716Z,15.79
2022-09-15T17:46:43.335Z,15.82
2022-09-15T17:49:46.086Z,15.69
2022-09-15T17:52:49.153Z,15.61
2022-09-15T17:55:54.516Z,15.58
2022-09-15T17:58:57.239Z,15.68
2022-09-15T18:01:59.848Z,15.60
2022-09-15T18:05:02.783Z,15.64
2022-09-15T18:08:06.868Z,15.54
2022-09-15T18:11:14.957Z,15.47
2022-09-15T18:14:17.652Z,15.44
2022-09-15T18:17:20.244Z,15.46
2022-09-15T18:20:24.659Z,15.43
2022-09-15T18:23:29.707Z,15.35
2022-09-15T18:26:33.841Z,15.34
2022-09-15T18:29:36.551Z,15.20
2022-09-15T18:32:39.473Z,15.16
2022-09-15T18:35:42.526Z,15.23
2022-09-15T18:38:45.128Z,15.15
2022-09-15T18:44:57.470Z,15.18
2022-09-15T18:48:00.184Z,15.25
2022-09-15T18:51:02.787Z,15.08
2022-09-15T18:54:05.703Z,15.15
2022-09-15T18:57:09.816Z,15.13
2022-09-15T19:00:15.394Z,15.17
2022-09-15T19:03:18.422Z,15.16
2022-09-15T19:06:21.073Z,15.02
2022-09-15T19:09:23.666Z,14.88
2022-09-15T19:12:27.794Z,14.96
2022-09-15T19:15:33.783Z,14.94
2022-09-15T19:18:37.163Z,14.97
2022-09-15T19:21:39.932Z,14.88
2022-09-15T19:24:42.791Z,14.93
2022-09-15T19:27:47.999Z,14.99
2022-09-15T19:30:50.666Z,14.98
2022-09-15T19:33:53.766Z,15.05
2022-09-15T19:36:56.887Z,14.99
2022-09-15T19:39:59.722Z,15.03
2022-09-15T19:43:03.960Z,14.96
2022-09-15T19:46:12.812Z,15.01
2022-09-15T19:49:15.982Z,15.03
2022-09-15T19:52:18.676Z,15.00
2022-09-15T19:55:21.736Z,15.08
2022-09-15T19:58:26.024Z,14.99
2022-09-15T20:01:30.470Z,15.02
2022-09-15T20:04:33.641Z,14.97
2022-09-15T20:07:36.310Z,14.94
2022-09-15T20:10:40.370Z,14.95
2022-09-15T20:13:44.894Z,14.83
2022-09-15T20:16:47.644Z,14.77
2022-09-15T20:19:50.424Z,14.84
2022-09-15T20:22:54.418Z,14.81
2022-09-15T20:25:58.478Z,14.64
2022-09-15T20:29:03.875Z,14.77
2022-09-15T20:32:06.678Z,14.65
2022-09-15T20:35:10.235Z,14.69
2022-09-15T20:38:12.913Z,14.66
2022-09-15T20:41:18.102Z,14.60
2022-09-15T20:44:22.024Z,14.53
2022-09-15T20:47:24.937Z,14.47
2022-09-15T20:50:27.721Z,14.32
2022-09-15T20:53:30.447Z,14.28
2022-09-15T20:56:35.593Z,14.21
2022-09-15T20:59:39.586Z,14.22
2022-09-15T21:02:42.475Z,14.15
2022-09-15T21:05:45.469Z,14.16
2022-09-15T21:08:48.907Z,14.11
2022-09-15T21:11:53.646Z,14.13
2022-09-15T21:14:57.855Z,14.11
2022-09-15T21:18:00.508Z,14.07
2022-09-15T21:21:05.528Z,14.07
2022-09-15T21:24:09.741Z,14.03
2022-09-15T21:27:27.962Z,14.06
2022-09-15T21:30:31.935Z,14.12
2022-09-15T21:33:35.076Z,14.21
2022-09-15T21:36:37.767Z,14.24
2022-09-15T21:39:40.411Z,14.28
2022-09-15T21:42:43.143Z,14.11
2022-09-15T21:45:47.128Z,14.03
2022-09-15T21:48:50.742Z,13.94
2022-09-15T21:51:53.289Z,13.88
2022-09-15T21:54:55.991Z,13.91
2022-09-15T21:57:58.673Z,13.96
2022-09-15T22:01:10.748Z,13.97
2022-09-15T22:04:13.494Z,13.82
2022-09-15T22:07:19.326Z,13.82
2022-09-15T22:10:22.025Z,13.81
2022-09-15T22:13:24.623Z,13.68
2022-09-15T22:16:28.731Z,13.63
2022-09-15T22:19:31.479Z,13.68
2022-09-15T22:22:44.223Z,13.67
2022-09-15T22:25:46.894Z,13.58
2022-09-15T22:28:50.010Z,13.60
2022-09-15T22:31:54.080Z,13.54
2022-09-15T22:34:57.115Z,13.41
2022-09-15T22:37:59.683Z,13.51
2022-09-15T22:41:05.469Z,13.42
2022-09-15T22:44:17.677Z,13.33
2022-09-15T22:47:21.742Z,13.36
2022-09-15T22:50:24.432Z,13.33
2022-09-15T22:53:27.485Z,13.29
2022-09-15T22:56:30.820Z,13.19
2022-09-15T22:59:33.369Z,13.22
2022-09-15T23:02:37.455Z,13.28
2022-09-15T23:05:40.217Z,13.26
2022-09-15T23:08:42.823Z,13.38
2022-09-15T23:11:45.433Z,13.42
2022-09-15T23:14:48.034Z,13.36
2022-09-15T23:17:52.221Z,13.39
2022-09-15T23:20:59.021Z,13.40
2022-09-15T23:24:01.889Z,13.31
2022-09-15T23:27:05.133Z,13.30
2022-09-15T23:30:09.036Z,13.23
2022-09-15T23:33:12.956Z,13.24
2022-09-15T23:36:19.476Z,13.08
2022-09-15T23:39:22.537Z,13.04
2022-09-15T23:42:25.237Z,13.02
2022-09-15T23:45:27.787Z,13.02
2022-09-15T23:48:32.691Z,13.23
2022-09-15T23:51:35.603Z,13.00
2022-09-15T23:54:38.272Z,13.08
2022-09-15T23:57:41.003Z,13.06
